sensor_id;sensor_type;location;lat;lon;timestamp;P1;durP1;ratioP1;P2;durP2;ratioP2
79562;SDS011;69026;50.980;11.314;2023-04-03T00:01:02;6.85;;;3.78;;
79562;SDS011;69026;50.980;11.314;2023-04-03T00:03:28;6.30;;;3.10;;
79562;SDS011;69026;50.980;11.314;2023-04-03T00:05:54;4.90;;;3.15;;
79562;SDS011;69026;50.980;11.314;2023-04-03T00:08:20;6.00;;;3.58;;
79562;SDS011;69026;50.980;11.314;2023-04-03T00:10:46;6.53;;;3.75;;
79562;SDS011;69026;50.980;11.314;2023-04-03T00:13:12;6.68;;;3.53;;
79562;SDS011;69026;50.980;11.314;2023-04-03T00:15:38;4.03;;;2.72;;
79562;SDS011;69026;50.980;11.314;2023-04-03T00:18:05;6.72;;;3.35;;
79562;SDS011;69026;50.980;11.314;2023-04-03T00:20:31;5.00;;;3.35;;
79562;SDS011;69026;50.980;11.314;2023-04-03T00:22:58;6.22;;;3.00;;
79562;SDS011;69026;50.980;11.314;2023-04-03T00:25:25;6.70;;;3.60;;
79562;SDS011;69026;50.980;11.314;2023-04-03T00:27:51;4.70;;;3.05;;
79562;SDS011;69026;50.980;11.314;2023-04-03T00:30:18;5.45;;;3.42;;
79562;SDS011;69026;50.980;11.314;2023-04-03T00:32:47;7.18;;;4.13;;
79562;SDS011;69026;50.980;11.314;2023-04-03T00:35:13;6.32;;;3.63;;
79562;SDS011;69026;50.980;11.314;2023-04-03T00:37:41;6.30;;;3.58;;
79562;SDS011;69026;50.980;11.314;2023-04-03T00:40:07;7.95;;;3.95;;
79562;SDS011;69026;50.980;11.314;2023-04-03T00:42:36;6.90;;;3.83;;
79562;SDS011;69026;50.980;11.314;2023-04-03T00:47:29;8.63;;;4.25;;
79562;SDS011;69026;50.980;11.314;2023-04-03T00:49:56;8.80;;;4.47;;
79562;SDS011;69026;50.980;11.314;2023-04-03T00:52:26;5.38;;;3.70;;
79562;SDS011;69026;50.980;11.314;2023-04-03T00:54:57;6.97;;;4.32;;
79562;SDS011;69026;50.980;11.314;2023-04-03T00:57:27;9.43;;;4.78;;
79562;SDS011;69026;50.980;11.314;2023-04-03T00:59:55;7.20;;;3.80;;
79562;SDS011;69026;50.980;11.314;2023-04-03T01:02:27;5.90;;;3.53;;
79562;SDS011;69026;50.980;11.314;2023-04-03T01:04:53;4.93;;;3.13;;
79562;SDS011;69026;50.980;11.314;2023-04-03T01:07:23;4.97;;;2.85;;
79562;SDS011;69026;50.980;11.314;2023-04-03T01:09:58;4.63;;;2.72;;
79562;SDS011;69026;50.980;11.314;2023-04-03T01:12:28;4.70;;;3.13;;
79562;SDS011;69026;50.980;11.314;2023-04-03T01:14:56;4.75;;;3.10;;
79562;SDS011;69026;50.980;11.314;2023-04-03T01:25:39;5.15;;;2.92;;
79562;SDS011;69026;50.980;11.314;2023-04-03T01:28:06;6.10;;;2.90;;
79562;SDS011;69026;50.980;11.314;2023-04-03T01:30:35;6.28;;;3.58;;
79562;SDS011;69026;50.980;11.314;2023-04-03T01:33:07;7.28;;;4.70;;
79562;SDS011;69026;50.980;11.314;2023-04-03T01:35:32;5.93;;;3.58;;
79562;SDS011;69026;50.980;11.314;2023-04-03T01:37:58;4.72;;;3.28;;
79562;SDS011;69026;50.980;11.314;2023-04-03T01:40:24;6.13;;;3.67;;
79562;SDS011;69026;50.980;11.314;2023-04-03T01:42:51;7.97;;;4.07;;
79562;SDS011;69026;50.980;11.314;2023-04-03T01:45:17;6.25;;;3.60;;
79562;SDS011;69026;50.980;11.314;2023-04-03T01:47:43;6.90;;;3.53;;
79562;SDS011;69026;50.980;11.314;2023-04-03T01:50:09;7.25;;;4.32;;
79562;SDS011;69026;50.980;11.314;2023-04-03T01:52:36;5.97;;;3.55;;
79562;SDS011;69026;50.980;11.314;2023-04-03T01:55:01;6.78;;;3.85;;
79562;SDS011;69026;50.980;11.314;2023-04-03T01:57:28;6.65;;;3.53;;
79562;SDS011;69026;50.980;11.314;2023-04-03T01:59:54;4.35;;;3.15;;
79562;SDS011;69026;50.980;11.314;2023-04-03T02:02:20;6.68;;;3.42;;
79562;SDS011;69026;50.980;11.314;2023-04-03T02:04:46;5.90;;;3.65;;
79562;SDS011;69026;50.980;11.314;2023-04-03T02:07:12;5.47;;;3.65;;
79562;SDS011;69026;50.980;11.314;2023-04-03T02:09:37;7.13;;;3.95;;
79562;SDS011;69026;50.980;11.314;2023-04-03T02:12:03;7.07;;;3.92;;
79562;SDS011;69026;50.980;11.314;2023-04-03T02:14:30;6.07;;;3.97;;
79562;SDS011;69026;50.980;11.314;2023-04-03T02:16:56;6.00;;;3.45;;
79562;SDS011;69026;50.980;11.314;2023-04-03T02:19:22;8.15;;;3.83;;
79562;SDS011;69026;50.980;11.314;2023-04-03T02:21:48;8.00;;;4.05;;
79562;SDS011;69026;50.980;11.314;2023-04-03T02:24:14;6.20;;;3.72;;
79562;SDS011;69026;50.980;11.314;2023-04-03T02:26:40;5.97;;;3.58;;
79562;SDS011;69026;50.980;11.314;2023-04-03T02:29:06;7.22;;;4.15;;
79562;SDS011;69026;50.980;11.314;2023-04-03T02:31:32;6.45;;;4.05;;
79562;SDS011;69026;50.980;11.314;2023-04-03T02:33:59;7.38;;;4.07;;
79562;SDS011;69026;50.980;11.314;2023-04-03T02:36:25;7.35;;;4.68;;
79562;SDS011;69026;50.980;11.314;2023-04-03T02:38:55;6.63;;;3.92;;
79562;SDS011;69026;50.980;11.314;2023-04-03T02:41:21;5.88;;;3.88;;
79562;SDS011;69026;50.980;11.314;2023-04-03T02:43:49;7.70;;;4.30;;
79562;SDS011;69026;50.980;11.314;2023-04-03T02:46:15;7.18;;;3.65;;
79562;SDS011;69026;50.980;11.314;2023-04-03T02:48:41;6.28;;;4.10;;
79562;SDS011;69026;50.980;11.314;2023-04-03T02:51:07;7.10;;;4.25;;
79562;SDS011;69026;50.980;11.314;2023-04-03T02:53:33;6.88;;;4.03;;
79562;SDS011;69026;50.980;11.314;2023-04-03T02:56:05;4.32;;;2.85;;
79562;SDS011;69026;50.980;11.314;2023-04-03T02:58:31;6.97;;;4.15;;
79562;SDS011;69026;50.980;11.314;2023-04-03T03:00:58;8.23;;;4.22;;
79562;SDS011;69026;50.980;11.314;2023-04-03T03:03:24;6.40;;;4.10;;
79562;SDS011;69026;50.980;11.314;2023-04-03T03:06:06;7.13;;;4.47;;
79562;SDS011;69026;50.980;11.314;2023-04-03T03:08:34;8.15;;;4.43;;
79562;SDS011;69026;50.980;11.314;2023-04-03T03:11:01;6.60;;;4.07;;
79562;SDS011;69026;50.980;11.314;2023-04-03T03:13:27;6.82;;;4.32;;
79562;SDS011;69026;50.980;11.314;2023-04-03T03:15:53;7.95;;;4.75;;
79562;SDS011;69026;50.980;11.314;2023-04-03T03:18:19;8.55;;;4.47;;
79562;SDS011;69026;50.980;11.314;2023-04-03T03:20:45;7.07;;;4.55;;
79562;SDS011;69026;50.980;11.314;2023-04-03T03:23:11;7.90;;;4.50;;
79562;SDS011;69026;50.980;11.314;2023-04-03T03:25:38;8.13;;;4.72;;
79562;SDS011;69026;50.980;11.314;2023-04-03T03:28:04;9.00;;;4.78;;
79562;SDS011;69026;50.980;11.314;2023-04-03T03:30:31;6.75;;;4.07;;
79562;SDS011;69026;50.980;11.314;2023-04-03T03:32:57;7.00;;;3.63;;
79562;SDS011;69026;50.980;11.314;2023-04-03T03:35:22;8.25;;;4.47;;
79562;SDS011;69026;50.980;11.314;2023-04-03T03:37:48;6.90;;;4.20;;
79562;SDS011;69026;50.980;11.314;2023-04-03T03:40:15;9.43;;;4.70;;
79562;SDS011;69026;50.980;11.314;2023-04-03T03:42:40;8.38;;;4.20;;
79562;SDS011;69026;50.980;11.314;2023-04-03T03:45:07;8.13;;;5.00;;
79562;SDS011;69026;50.980;11.314;2023-04-03T03:47:33;6.10;;;3.65;;
79562;SDS011;69026;50.980;11.314;2023-04-03T03:49:59;7.30;;;4.35;;
79562;SDS011;69026;50.980;11.314;2023-04-03T03:52:26;7.47;;;4.40;;
79562;SDS011;69026;50.980;11.314;2023-04-03T03:54:53;7.97;;;4.80;;
79562;SDS011;69026;50.980;11.314;2023-04-03T03:57:19;6.80;;;4.13;;
79562;SDS011;69026;50.980;11.314;2023-04-03T03:59:44;9.25;;;4.85;;
79562;SDS011;69026;50.980;11.314;2023-04-03T04:02:11;8.02;;;4.30;;
79562;SDS011;69026;50.980;11.314;2023-04-03T04:04:37;8.05;;;4.35;;
79562;SDS011;69026;50.980;11.314;2023-04-03T04:07:03;8.82;;;4.55;;
79562;SDS011;69026;50.980;11.314;2023-04-03T04:09:31;6.82;;;4.13;;
79562;SDS011;69026;50.980;11.314;2023-04-03T04:11:57;8.43;;;4.45;;
79562;SDS011;69026;50.980;11.314;2023-04-03T04:14:23;8.32;;;4.35;;
79562;SDS011;69026;50.980;11.314;2023-04-03T04:16:50;7.03;;;4.18;;
79562;SDS011;69026;50.980;11.314;2023-04-03T04:19:21;7.65;;;4.25;;
79562;SDS011;69026;50.980;11.314;2023-04-03T04:21:48;8.13;;;4.30;;
79562;SDS011;69026;50.980;11.314;2023-04-03T04:24:14;9.10;;;5.13;;
79562;SDS011;69026;50.980;11.314;2023-04-03T04:26:40;7.22;;;4.13;;
79562;SDS011;69026;50.980;11.314;2023-04-03T04:31:35;8.02;;;4.68;;
79562;SDS011;69026;50.980;11.314;2023-04-03T04:34:02;8.90;;;4.75;;
79562;SDS011;69026;50.980;11.314;2023-04-03T04:36:28;7.07;;;3.88;;
79562;SDS011;69026;50.980;11.314;2023-04-03T04:38:54;8.10;;;4.13;;
79562;SDS011;69026;50.980;11.314;2023-04-03T04:41:22;7.57;;;4.57;;
79562;SDS011;69026;50.980;11.314;2023-04-03T04:43:49;8.77;;;4.45;;
79562;SDS011;69026;50.980;11.314;2023-04-03T04:46:16;8.02;;;4.35;;
79562;SDS011;69026;50.980;11.314;2023-04-03T04:48:47;7.68;;;4.80;;
79562;SDS011;69026;50.980;11.314;2023-04-03T04:51:16;7.82;;;4.60;;
79562;SDS011;69026;50.980;11.314;2023-04-03T04:53:42;8.45;;;4.40;;
79562;SDS011;69026;50.980;11.314;2023-04-03T04:56:11;7.93;;;4.60;;
79562;SDS011;69026;50.980;11.314;2023-04-03T04:58:38;7.78;;;4.22;;
79562;SDS011;69026;50.980;11.314;2023-04-03T05:01:05;7.45;;;4.32;;
79562;SDS011;69026;50.980;11.314;2023-04-03T05:03:37;7.60;;;4.20;;
79562;SDS011;69026;50.980;11.314;2023-04-03T05:06:03;7.15;;;4.30;;
79562;SDS011;69026;50.980;11.314;2023-04-03T05:08:32;8.32;;;4.32;;
79562;SDS011;69026;50.980;11.314;2023-04-03T05:10:58;6.82;;;3.80;;
79562;SDS011;69026;50.980;11.314;2023-04-03T05:13:26;6.50;;;3.70;;
79562;SDS011;69026;50.980;11.314;2023-04-03T05:15:53;7.53;;;4.35;;
79562;SDS011;69026;50.980;11.314;2023-04-03T05:18:19;7.00;;;4.20;;
79562;SDS011;69026;50.980;11.314;2023-04-03T05:20:45;9.25;;;4.70;;
79562;SDS011;69026;50.980;11.314;2023-04-03T05:23:14;8.73;;;4.47;;
79562;SDS011;69026;50.980;11.314;2023-04-03T05:25:40;8.02;;;4.75;;
79562;SDS011;69026;50.980;11.314;2023-04-03T05:28:07;7.07;;;4.35;;
79562;SDS011;69026;50.980;11.314;2023-04-03T05:30:34;8.65;;;4.68;;
79562;SDS011;69026;50.980;11.314;2023-04-03T05:33:02;7.82;;;4.38;;
79562;SDS011;69026;50.980;11.314;2023-04-03T05:35:36;7.57;;;4.13;;
79562;SDS011;69026;50.980;11.314;2023-04-03T05:38:07;8.25;;;4.65;;
79562;SDS011;69026;50.980;11.314;2023-04-03T05:40:33;6.65;;;3.83;;
79562;SDS011;69026;50.980;11.314;2023-04-03T05:42:59;7.13;;;3.97;;
79562;SDS011;69026;50.980;11.314;2023-04-03T05:45:28;6.57;;;4.15;;
79562;SDS011;69026;50.980;11.314;2023-04-03T05:47:55;7.00;;;4.13;;
79562;SDS011;69026;50.980;11.314;2023-04-03T05:50:22;8.35;;;4.05;;
79562;SDS011;69026;50.980;11.314;2023-04-03T05:52:52;6.68;;;4.10;;
79562;SDS011;69026;50.980;11.314;2023-04-03T05:55:20;10.07;;;5.47;;
79562;SDS011;69026;50.980;11.314;2023-04-03T05:57:46;5.25;;;3.30;;
79562;SDS011;69026;50.980;11.314;2023-04-03T06:00:13;5.90;;;3.55;;
79562;SDS011;69026;50.980;11.314;2023-04-03T06:02:44;5.68;;;3.75;;
79562;SDS011;69026;50.980;11.314;2023-04-03T06:05:16;5.95;;;3.60;;
79562;SDS011;69026;50.980;11.314;2023-04-03T06:07:42;6.18;;;4.38;;
79562;SDS011;69026;50.980;11.314;2023-04-03T06:10:10;8.38;;;4.20;;
79562;SDS011;69026;50.980;11.314;2023-04-03T06:12:37;5.68;;;3.90;;
79562;SDS011;69026;50.980;11.314;2023-04-03T06:15:03;6.25;;;3.70;;
79562;SDS011;69026;50.980;11.314;2023-04-03T06:17:30;8.07;;;4.13;;
79562;SDS011;69026;50.980;11.314;2023-04-03T06:19:56;4.93;;;3.20;;
79562;SDS011;69026;50.980;11.314;2023-04-03T06:22:24;7.03;;;3.97;;
79562;SDS011;69026;50.980;11.314;2023-04-03T06:24:51;5.68;;;3.95;;
79562;SDS011;69026;50.980;11.314;2023-04-03T06:27:17;7.32;;;4.13;;
79562;SDS011;69026;50.980;11.314;2023-04-03T06:29:42;5.32;;;3.15;;
79562;SDS011;69026;50.980;11.314;2023-04-03T06:32:10;6.57;;;3.97;;
79562;SDS011;69026;50.980;11.314;2023-04-03T06:34:36;6.65;;;4.05;;
79562;SDS011;69026;50.980;11.314;2023-04-03T06:37:02;6.15;;;3.83;;
79562;SDS011;69026;50.980;11.314;2023-04-03T06:39:28;7.15;;;3.95;;
79562;SDS011;69026;50.980;11.314;2023-04-03T06:41:54;6.47;;;4.18;;
79562;SDS011;69026;50.980;11.314;2023-04-03T06:44:28;6.07;;;3.13;;
79562;SDS011;69026;50.980;11.314;2023-04-03T06:46:54;8.05;;;4.15;;
79562;SDS011;69026;50.980;11.314;2023-04-03T06:49:20;6.85;;;3.33;;
79562;SDS011;69026;50.980;11.314;2023-04-03T06:51:46;8.07;;;4.10;;
79562;SDS011;69026;50.980;11.314;2023-04-03T06:54:12;11.02;;;4.57;;
79562;SDS011;69026;50.980;11.314;2023-04-03T06:56:40;6.53;;;3.55;;
79562;SDS011;69026;50.980;11.314;2023-04-03T06:59:05;7.68;;;3.63;;
79562;SDS011;69026;50.980;11.314;2023-04-03T07:01:31;6.18;;;3.47;;
79562;SDS011;69026;50.980;11.314;2023-04-03T07:03:57;5.15;;;3.00;;
79562;SDS011;69026;50.980;11.314;2023-04-03T07:06:23;5.03;;;3.10;;
79562;SDS011;69026;50.980;11.314;2023-04-03T07:08:52;5.20;;;3.15;;
79562;SDS011;69026;50.980;11.314;2023-04-03T07:11:18;6.43;;;3.90;;
79562;SDS011;69026;50.980;11.314;2023-04-03T07:13:45;4.80;;;2.40;;
79562;SDS011;69026;50.980;11.314;2023-04-03T07:16:11;6.15;;;3.67;;
79562;SDS011;69026;50.980;11.314;2023-04-03T07:18:37;5.97;;;2.88;;
79562;SDS011;69026;50.980;11.314;2023-04-03T07:21:04;5.53;;;3.33;;
79562;SDS011;69026;50.980;11.314;2023-04-03T07:23:30;6.85;;;3.10;;
79562;SDS011;69026;50.980;11.314;2023-04-03T07:25:56;4.53;;;2.72;;
79562;SDS011;69026;50.980;11.314;2023-04-03T07:28:22;7.13;;;2.83;;
79562;SDS011;69026;50.980;11.314;2023-04-03T07:30:49;5.43;;;2.92;;
79562;SDS011;69026;50.980;11.314;2023-04-03T07:33:21;5.10;;;2.30;;
79562;SDS011;69026;50.980;11.314;2023-04-03T07:35:48;4.97;;;2.85;;
79562;SDS011;69026;50.980;11.314;2023-04-03T07:38:14;6.10;;;2.83;;
79562;SDS011;69026;50.980;11.314;2023-04-03T07:40:40;6.47;;;3.35;;
79562;SDS011;69026;50.980;11.314;2023-04-03T07:43:11;7.28;;;3.70;;
79562;SDS011;69026;50.980;11.314;2023-04-03T07:45:37;7.60;;;3.80;;
79562;SDS011;69026;50.980;11.314;2023-04-03T07:48:06;6.80;;;3.10;;
79562;SDS011;69026;50.980;11.314;2023-04-03T07:50:32;9.43;;;4.25;;
79562;SDS011;69026;50.980;11.314;2023-04-03T07:52:58;6.25;;;2.97;;
79562;SDS011;69026;50.980;11.314;2023-04-03T07:55:24;5.40;;;3.17;;
79562;SDS011;69026;50.980;11.314;2023-04-03T07:57:51;6.43;;;3.75;;
79562;SDS011;69026;50.980;11.314;2023-04-03T08:00:17;5.20;;;2.70;;
79562;SDS011;69026;50.980;11.314;2023-04-03T08:02:43;4.97;;;3.28;;
79562;SDS011;69026;50.980;11.314;2023-04-03T08:05:10;5.82;;;3.10;;
79562;SDS011;69026;50.980;11.314;2023-04-03T08:07:37;5.35;;;3.45;;
79562;SDS011;69026;50.980;11.314;2023-04-03T08:10:03;5.32;;;3.03;;
79562;SDS011;69026;50.980;11.314;2023-04-03T08:12:29;4.22;;;2.58;;
79562;SDS011;69026;50.980;11.314;2023-04-03T08:14:57;5.03;;;2.50;;
79562;SDS011;69026;50.980;11.314;2023-04-03T08:17:26;4.65;;;2.55;;
79562;SDS011;69026;50.980;11.314;2023-04-03T08:19:52;6.28;;;3.15;;
79562;SDS011;69026;50.980;11.314;2023-04-03T08:22:18;4.20;;;2.38;;
79562;SDS011;69026;50.980;11.314;2023-04-03T08:24:43;5.90;;;3.08;;
79562;SDS011;69026;50.980;11.314;2023-04-03T08:27:09;4.18;;;2.47;;
79562;SDS011;69026;50.980;11.314;2023-04-03T08:29:35;6.75;;;2.70;;
79562;SDS011;69026;50.980;11.314;2023-04-03T08:32:03;4.50;;;2.35;;
79562;SDS011;69026;50.980;11.314;2023-04-03T08:34:30;3.47;;;1.92;;
79562;SDS011;69026;50.980;11.314;2023-04-03T08:37:00;5.80;;;2.50;;
79562;SDS011;69026;50.980;11.314;2023-04-03T08:39:27;5.28;;;2.92;;
79562;SDS011;69026;50.980;11.314;2023-04-03T08:41:53;3.95;;;2.42;;
79562;SDS011;69026;50.980;11.314;2023-04-03T08:44:32;6.03;;;3.35;;
79562;SDS011;69026;50.980;11.314;2023-04-03T08:47:20;6.72;;;3.85;;
79562;SDS011;69026;50.980;11.314;2023-04-03T08:50:00;5.55;;;2.92;;
79562;SDS011;69026;50.980;11.314;2023-04-03T08:52:36;5.35;;;3.20;;
79562;SDS011;69026;50.980;11.314;2023-04-03T08:55:13;6.50;;;3.15;;
79562;SDS011;69026;50.980;11.314;2023-04-03T09:02:56;9.02;;;3.75;;
79562;SDS011;69026;50.980;11.314;2023-04-03T09:07:58;5.78;;;3.33;;
79562;SDS011;69026;50.980;11.314;2023-04-03T09:10:32;7.90;;;3.55;;
79562;SDS011;69026;50.980;11.314;2023-04-03T09:15:33;6.25;;;3.08;;
79562;SDS011;69026;50.980;11.314;2023-04-03T09:18:02;6.82;;;3.60;;
79562;SDS011;69026;50.980;11.314;2023-04-03T09:26:17;7.82;;;3.42;;
79562;SDS011;69026;50.980;11.314;2023-04-03T09:28:48;5.72;;;3.38;;
79562;SDS011;69026;50.980;11.314;2023-04-03T09:33:50;6.10;;;3.22;;
79562;SDS011;69026;50.980;11.314;2023-04-03T09:39:48;4.90;;;2.72;;
79562;SDS011;69026;50.980;11.314;2023-04-03T09:42:22;5.45;;;3.20;;
79562;SDS011;69026;50.980;11.314;2023-04-03T09:44:56;7.43;;;3.80;;
79562;SDS011;69026;50.980;11.314;2023-04-03T09:47:31;6.03;;;3.00;;
79562;SDS011;69026;50.980;11.314;2023-04-03T09:52:38;6.22;;;3.10;;
79562;SDS011;69026;50.980;11.314;2023-04-03T09:55:19;7.40;;;3.88;;
79562;SDS011;69026;50.980;11.314;2023-04-03T09:57:59;7.13;;;3.10;;
79562;SDS011;69026;50.980;11.314;2023-04-03T10:02:56;15.20;;;4.13;;
79562;SDS011;69026;50.980;11.314;2023-04-03T10:05:31;5.55;;;2.97;;
79562;SDS011;69026;50.980;11.314;2023-04-03T10:08:07;5.72;;;2.85;;
79562;SDS011;69026;50.980;11.314;2023-04-03T10:10:40;7.07;;;2.17;;
79562;SDS011;69026;50.980;11.314;2023-04-03T10:13:12;4.47;;;1.30;;
79562;SDS011;69026;50.980;11.314;2023-04-03T10:15:43;1.70;;;0.90;;
79562;SDS011;69026;50.980;11.314;2023-04-03T10:21:33;1.20;;;0.63;;
79562;SDS011;69026;50.980;11.314;2023-04-03T10:24:13;0.93;;;0.52;;
79562;SDS011;69026;50.980;11.314;2023-04-03T10:27:06;1.98;;;0.70;;
79562;SDS011;69026;50.980;11.314;2023-04-03T10:29:55;3.60;;;0.60;;
79562;SDS011;69026;50.980;11.314;2023-04-03T10:38:20;1.92;;;0.50;;
79562;SDS011;69026;50.980;11.314;2023-04-03T10:41:17;1.45;;;0.65;;
79562;SDS011;69026;50.980;11.314;2023-04-03T10:44:09;1.23;;;0.70;;
79562;SDS011;69026;50.980;11.314;2023-04-03T10:52:17;1.80;;;0.73;;
79562;SDS011;69026;50.980;11.314;2023-04-03T10:57:54;1.75;;;0.47;;
79562;SDS011;69026;50.980;11.314;2023-04-03T11:00:25;1.10;;;0.63;;
79562;SDS011;69026;50.980;11.314;2023-04-03T11:06:01;2.10;;;0.60;;
79562;SDS011;69026;50.980;11.314;2023-04-03T11:11:03;1.38;;;0.70;;
79562;SDS011;69026;50.980;11.314;2023-04-03T11:13:52;1.60;;;0.70;;
79562;SDS011;69026;50.980;11.314;2023-04-03T11:16:33;1.88;;;0.88;;
79562;SDS011;69026;50.980;11.314;2023-04-03T11:19:11;2.53;;;0.90;;
79562;SDS011;69026;50.980;11.314;2023-04-03T11:22:09;1.50;;;0.75;;
79562;SDS011;69026;50.980;11.314;2023-04-03T11:24:42;1.33;;;0.75;;
79562;SDS011;69026;50.980;11.314;2023-04-03T11:27:15;2.03;;;0.95;;
79562;SDS011;69026;50.980;11.314;2023-04-03T11:29:47;3.78;;;1.10;;
79562;SDS011;69026;50.980;11.314;2023-04-03T11:34:52;2.08;;;1.00;;
79562;SDS011;69026;50.980;11.314;2023-04-03T11:37:26;2.17;;;0.85;;
79562;SDS011;69026;50.980;11.314;2023-04-03T11:39:58;2.38;;;1.00;;
79562;SDS011;69026;50.980;11.314;2023-04-03T11:47:51;2.58;;;0.98;;
79562;SDS011;69026;50.980;11.314;2023-04-03T11:53:01;2.50;;;1.00;;
79562;SDS011;69026;50.980;11.314;2023-04-03T12:16:23;1.35;;;0.80;;
79562;SDS011;69026;50.980;11.314;2023-04-03T12:26:41;1.90;;;1.00;;
79562;SDS011;69026;50.980;11.314;2023-04-03T12:29:17;2.65;;;0.93;;
79562;SDS011;69026;50.980;11.314;2023-04-03T12:32:12;2.58;;;1.10;;
79562;SDS011;69026;50.980;11.314;2023-04-03T12:37:30;2.50;;;0.98;;
79562;SDS011;69026;50.980;11.314;2023-04-03T12:48:27;2.10;;;1.20;;
79562;SDS011;69026;50.980;11.314;2023-04-03T12:50:55;1.73;;;0.90;;
79562;SDS011;69026;50.980;11.314;2023-04-03T12:53:31;1.85;;;0.80;;
79562;SDS011;69026;50.980;11.314;2023-04-03T12:58:44;1.30;;;0.80;;
79562;SDS011;69026;50.980;11.314;2023-04-03T13:01:10;2.85;;;0.98;;
79562;SDS011;69026;50.980;11.314;2023-04-03T13:03:40;1.70;;;0.95;;
79562;SDS011;69026;50.980;11.314;2023-04-03T13:06:20;2.80;;;1.15;;
79562;SDS011;69026;50.980;11.314;2023-04-03T13:08:52;1.55;;;0.75;;
79562;SDS011;69026;50.980;11.314;2023-04-03T13:11:22;4.13;;;1.30;;
79562;SDS011;69026;50.980;11.314;2023-04-03T13:13:57;2.80;;;1.30;;
79562;SDS011;69026;50.980;11.314;2023-04-03T13:16:28;2.40;;;0.90;;
79562;SDS011;69026;50.980;11.314;2023-04-03T13:18:54;2.25;;;0.98;;
79562;SDS011;69026;50.980;11.314;2023-04-03T13:21:33;2.13;;;0.93;;
79562;SDS011;69026;50.980;11.314;2023-04-03T13:24:01;1.77;;;0.68;;
79562;SDS011;69026;50.980;11.314;2023-04-03T13:26:30;1.00;;;0.60;;
79562;SDS011;69026;50.980;11.314;2023-04-03T13:29:03;1.83;;;0.65;;
79562;SDS011;69026;50.980;11.314;2023-04-03T13:31:34;2.05;;;0.90;;
79562;SDS011;69026;50.980;11.314;2023-04-03T13:34:18;1.65;;;0.77;;
79562;SDS011;69026;50.980;11.314;2023-04-03T13:36:50;2.30;;;1.10;;
79562;SDS011;69026;50.980;11.314;2023-04-03T13:39:25;1.42;;;0.90;;
79562;SDS011;69026;50.980;11.314;2023-04-03T13:41:54;3.00;;;1.20;;
79562;SDS011;69026;50.980;11.314;2023-04-03T13:46:48;3.38;;;1.40;;
79562;SDS011;69026;50.980;11.314;2023-04-03T13:49:19;1.88;;;0.93;;
79562;SDS011;69026;50.980;11.314;2023-04-03T13:51:46;4.53;;;0.70;;
79562;SDS011;69026;50.980;11.314;2023-04-03T13:54:20;1.85;;;0.70;;
79562;SDS011;69026;50.980;11.314;2023-04-03T13:56:55;2.17;;;0.95;;
79562;SDS011;69026;50.980;11.314;2023-04-03T13:59:30;1.17;;;0.70;;
79562;SDS011;69026;50.980;11.314;2023-04-03T14:04:30;2.53;;;1.13;;
79562;SDS011;69026;50.980;11.314;2023-04-03T14:07:03;1.70;;;0.60;;
79562;SDS011;69026;50.980;11.314;2023-04-03T14:09:29;1.88;;;1.02;;
79562;SDS011;69026;50.980;11.314;2023-04-03T14:11:57;1.88;;;1.10;;
79562;SDS011;69026;50.980;11.314;2023-04-03T14:14:32;2.85;;;1.00;;
79562;SDS011;69026;50.980;11.314;2023-04-03T14:21:54;2.30;;;1.20;;
79562;SDS011;69026;50.980;11.314;2023-04-03T14:24:21;1.38;;;0.80;;
79562;SDS011;69026;50.980;11.314;2023-04-03T14:26:48;1.48;;;0.88;;
79562;SDS011;69026;50.980;11.314;2023-04-03T14:29:15;1.75;;;0.75;;
79562;SDS011;69026;50.980;11.314;2023-04-03T14:31:44;1.67;;;0.93;;
79562;SDS011;69026;50.980;11.314;2023-04-03T14:34:11;1.33;;;0.75;;
79562;SDS011;69026;50.980;11.314;2023-04-03T14:36:38;2.47;;;0.82;;
79562;SDS011;69026;50.980;11.314;2023-04-03T14:39:06;2.75;;;1.13;;
79562;SDS011;69026;50.980;11.314;2023-04-03T14:41:34;1.33;;;0.70;;
79562;SDS011;69026;50.980;11.314;2023-04-03T14:44:00;2.17;;;0.90;;
79562;SDS011;69026;50.980;11.314;2023-04-03T14:46:28;1.65;;;0.82;;
79562;SDS011;69026;50.980;11.314;2023-04-03T14:48:57;2.22;;;1.20;;
79562;SDS011;69026;50.980;11.314;2023-04-03T14:51:23;2.38;;;1.15;;
79562;SDS011;69026;50.980;11.314;2023-04-03T14:53:49;1.40;;;0.80;;
79562;SDS011;69026;50.980;11.314;2023-04-03T14:56:19;1.98;;;1.15;;
79562;SDS011;69026;50.980;11.314;2023-04-03T14:58:51;1.75;;;0.90;;
79562;SDS011;69026;50.980;11.314;2023-04-03T15:01:21;1.15;;;0.80;;
79562;SDS011;69026;50.980;11.314;2023-04-03T15:03:47;2.70;;;1.45;;
79562;SDS011;69026;50.980;11.314;2023-04-03T15:06:13;1.48;;;1.02;;
79562;SDS011;69026;50.980;11.314;2023-04-03T15:08:40;1.88;;;1.10;;
79562;SDS011;69026;50.980;11.314;2023-04-03T15:11:08;1.65;;;0.90;;
79562;SDS011;69026;50.980;11.314;2023-04-03T15:13:35;1.73;;;1.20;;
79562;SDS011;69026;50.980;11.314;2023-04-03T15:16:01;2.03;;;1.10;;
79562;SDS011;69026;50.980;11.314;2023-04-03T15:18:30;5.43;;;1.88;;
79562;SDS011;69026;50.980;11.314;2023-04-03T15:21:00;3.75;;;1.30;;
79562;SDS011;69026;50.980;11.314;2023-04-03T15:23:27;1.67;;;0.90;;
79562;SDS011;69026;50.980;11.314;2023-04-03T15:25:53;1.55;;;0.90;;
79562;SDS011;69026;50.980;11.314;2023-04-03T15:28:25;1.75;;;0.95;;
79562;SDS011;69026;50.980;11.314;2023-04-03T15:30:52;1.40;;;0.80;;
79562;SDS011;69026;50.980;11.314;2023-04-03T15:33:18;2.33;;;1.02;;
79562;SDS011;69026;50.980;11.314;2023-04-03T15:35:44;1.83;;;0.98;;
79562;SDS011;69026;50.980;11.314;2023-04-03T15:38:10;2.30;;;1.25;;
79562;SDS011;69026;50.980;11.314;2023-04-03T15:40:36;2.33;;;1.00;;
79562;SDS011;69026;50.980;11.314;2023-04-03T15:43:03;1.65;;;1.00;;
79562;SDS011;69026;50.980;11.314;2023-04-03T15:45:30;2.83;;;1.60;;
79562;SDS011;69026;50.980;11.314;2023-04-03T15:47:57;3.38;;;1.80;;
79562;SDS011;69026;50.980;11.314;2023-04-03T15:50:23;4.80;;;3.42;;
79562;SDS011;69026;50.980;11.314;2023-04-03T15:52:50;3.88;;;2.75;;
79562;SDS011;69026;50.980;11.314;2023-04-03T15:55:20;4.88;;;3.22;;
79562;SDS011;69026;50.980;11.314;2023-04-03T15:57:47;7.85;;;5.13;;
79562;SDS011;69026;50.980;11.314;2023-04-03T16:00:13;10.30;;;6.97;;
79562;SDS011;69026;50.980;11.314;2023-04-03T16:02:40;9.63;;;6.85;;
79562;SDS011;69026;50.980;11.314;2023-04-03T16:05:07;10.38;;;7.40;;
79562;SDS011;69026;50.980;11.314;2023-04-03T16:07:34;11.25;;;7.85;;
79562;SDS011;69026;50.980;11.314;2023-04-03T16:10:00;12.63;;;8.02;;
79562;SDS011;69026;50.980;11.314;2023-04-03T16:12:25;15.55;;;10.27;;
79562;SDS011;69026;50.980;11.314;2023-04-03T16:14:51;14.57;;;10.57;;
79562;SDS011;69026;50.980;11.314;2023-04-03T16:17:17;14.70;;;9.60;;
79562;SDS011;69026;50.980;11.314;2023-04-03T16:19:43;16.50;;;10.32;;
79562;SDS011;69026;50.980;11.314;2023-04-03T16:22:09;18.27;;;11.75;;
79562;SDS011;69026;50.980;11.314;2023-04-03T16:24:35;16.45;;;12.02;;
79562;SDS011;69026;50.980;11.314;2023-04-03T16:27:01;17.02;;;10.80;;
79562;SDS011;69026;50.980;11.314;2023-04-03T16:29:27;13.52;;;9.70;;
79562;SDS011;69026;50.980;11.314;2023-04-03T16:31:53;16.55;;;10.48;;
79562;SDS011;69026;50.980;11.314;2023-04-03T16:34:18;15.00;;;10.15;;
79562;SDS011;69026;50.980;11.314;2023-04-03T16:36:44;15.93;;;10.27;;
79562;SDS011;69026;50.980;11.314;2023-04-03T16:39:10;16.80;;;9.80;;
79562;SDS011;69026;50.980;11.314;2023-04-03T16:41:36;19.05;;;11.70;;
79562;SDS011;69026;50.980;11.314;2023-04-03T16:44:02;16.23;;;10.73;;
79562;SDS011;69026;50.980;11.314;2023-04-03T16:46:28;16.20;;;10.30;;
79562;SDS011;69026;50.980;11.314;2023-04-03T16:48:54;14.88;;;9.45;;